sensor_id;sensor_type;location;lat;lon;timestamp;P1;durP1;ratioP1;P2;durP2;ratioP2
13208;SDS011;6669;42.678;23.332;2024-01-15T00:01:03;24.23;;;17.40;;
13208;SDS011;6669;42.678;23.332;2024-01-15T00:03:33;26.17;;;18.47;;
13208;SDS011;6669;42.678;23.332;2024-01-15T00:06:01;33.07;;;22.80;;
13208;SDS011;6669;42.678;23.332;2024-01-15T00:08:29;35.03;;;24.23;;
13208;SDS011;6669;42.678;23.332;2024-01-15T00:10:57;34.97;;;23.83;;
13208;SDS011;6669;42.678;23.332;2024-01-15T00:13:25;31.30;;;23.47;;
13208;SDS011;6669;42.678;23.332;2024-01-15T00:15:54;29.83;;;22.60;;
13208;SDS011;6669;42.678;23.332;2024-01-15T00:18:22;29.80;;;21.90;;
13208;SDS011;6669;42.678;23.332;2024-01-15T00:20:52;36.73;;;24.70;;
13208;SDS011;6669;42.678;23.332;2024-01-15T00:23:20;37.63;;;26.37;;
13208;SDS011;6669;42.678;23.332;2024-01-15T00:25:50;37.67;;;25.57;;
13208;SDS011;6669;42.678;23.332;2024-01-15T00:28:19;53.93;;;38.33;;
13208;SDS011;6669;42.678;23.332;2024-01-15T00:30:47;43.70;;;33.07;;
13208;SDS011;6669;42.678;23.332;2024-01-15T00:33:15;44.67;;;30.67;;
13208;SDS011;6669;42.678;23.332;2024-01-15T00:35:44;42.37;;;30.07;;
13208;SDS011;6669;42.678;23.332;2024-01-15T00:38:14;37.33;;;27.47;;
13208;SDS011;6669;42.678;23.332;2024-01-15T00:40:42;35.07;;;26.90;;
13208;SDS011;6669;42.678;23.332;2024-01-15T00:43:10;37.77;;;26.70;;
13208;SDS011;6669;42.678;23.332;2024-01-15T00:45:38;36.43;;;25.57;;
13208;SDS011;6669;42.678;23.332;2024-01-15T00:48:07;31.13;;;24.43;;
13208;SDS011;6669;42.678;23.332;2024-01-15T00:50:35;28.60;;;22.47;;
13208;SDS011;6669;42.678;23.332;2024-01-15T00:53:04;31.80;;;21.43;;
13208;SDS011;6669;42.678;23.332;2024-01-15T00:55:34;34.07;;;25.30;;
13208;SDS011;6669;42.678;23.332;2024-01-15T00:58:04;33.07;;;24.37;;
13208;SDS011;6669;42.678;23.332;2024-01-15T01:00:32;33.70;;;24.47;;
13208;SDS011;6669;42.678;23.332;2024-01-15T01:03:00;30.60;;;24.10;;
13208;SDS011;6669;42.678;23.332;2024-01-15T01:05:28;32.30;;;23.23;;
13208;SDS011;6669;42.678;23.332;2024-01-15T01:07:57;33.47;;;24.30;;
13208;SDS011;6669;42.678;23.332;2024-01-15T01:10:25;36.53;;;24.80;;
13208;SDS011;6669;42.678;23.332;2024-01-15T01:12:55;34.63;;;24.33;;
13208;SDS011;6669;42.678;23.332;2024-01-15T01:15:23;30.50;;;22.07;;
13208;SDS011;6669;42.678;23.332;2024-01-15T01:17:51;29.23;;;20.77;;
13208;SDS011;6669;42.678;23.332;2024-01-15T01:20:19;31.40;;;22.80;;
13208;SDS011;6669;42.678;23.332;2024-01-15T01:22:48;30.40;;;22.37;;
13208;SDS011;6669;42.678;23.332;2024-01-15T01:25:16;28.43;;;22.57;;
13208;SDS011;6669;42.678;23.332;2024-01-15T01:27:44;26.17;;;20.07;;
13208;SDS011;6669;42.678;23.332;2024-01-15T01:30:14;27.83;;;20.23;;
13208;SDS011;6669;42.678;23.332;2024-01-15T01:32:42;27.03;;;18.87;;
13208;SDS011;6669;42.678;23.332;2024-01-15T01:35:12;22.10;;;17.40;;
13208;SDS011;6669;42.678;23.332;2024-01-15T01:37:40;23.73;;;17.40;;
13208;SDS011;6669;42.678;23.332;2024-01-15T01:40:09;24.77;;;17.63;;
13208;SDS011;6669;42.678;23.332;2024-01-15T01:42:37;25.23;;;17.83;;
13208;SDS011;6669;42.678;23.332;2024-01-15T01:45:06;23.20;;;17.40;;
13208;SDS011;6669;42.678;23.332;2024-01-15T01:47:36;26.73;;;20.17;;
13208;SDS011;6669;42.678;23.332;2024-01-15T01:50:06;26.23;;;19.33;;
13208;SDS011;6669;42.678;23.332;2024-01-15T01:52:35;29.30;;;21.07;;
13208;SDS011;6669;42.678;23.332;2024-01-15T01:55:04;25.53;;;18.07;;
13208;SDS011;6669;42.678;23.332;2024-01-15T01:57:34;27.73;;;18.83;;
13208;SDS011;6669;42.678;23.332;2024-01-15T02:00:03;34.93;;;22.97;;
13208;SDS011;6669;42.678;23.332;2024-01-15T02:02:33;23.03;;;16.80;;
13208;SDS011;6669;42.678;23.332;2024-01-15T02:05:03;19.37;;;15.47;;
13208;SDS011;6669;42.678;23.332;2024-01-15T02:07:34;19.70;;;14.50;;
13208;SDS011;6669;42.678;23.332;2024-01-15T02:10:03;20.37;;;15.93;;
13208;SDS011;6669;42.678;23.332;2024-01-15T02:12:32;21.73;;;15.90;;
13208;SDS011;6669;42.678;23.332;2024-01-15T02:15:01;18.57;;;13.50;;
13208;SDS011;6669;42.678;23.332;2024-01-15T02:17:29;19.10;;;15.00;;
13208;SDS011;6669;42.678;23.332;2024-01-15T02:19:58;17.40;;;13.60;;
13208;SDS011;6669;42.678;23.332;2024-01-15T02:22:27;22.63;;;13.27;;
13208;SDS011;6669;42.678;23.332;2024-01-15T02:24:57;18.10;;;12.93;;
13208;SDS011;6669;42.678;23.332;2024-01-15T02:27:25;16.93;;;12.00;;
13208;SDS011;6669;42.678;23.332;2024-01-15T02:29:53;14.07;;;12.00;;
13208;SDS011;6669;42.678;23.332;2024-01-15T02:32:23;19.80;;;12.20;;
13208;SDS011;6669;42.678;23.332;2024-01-15T02:34:51;14.70;;;11.13;;
13208;SDS011;6669;42.678;23.332;2024-01-15T02:37:19;14.67;;;10.57;;
13208;SDS011;6669;42.678;23.332;2024-01-15T02:39:48;15.10;;;10.50;;
13208;SDS011;6669;42.678;23.332;2024-01-15T02:42:17;12.40;;;9.70;;
13208;SDS011;6669;42.678;23.332;2024-01-15T02:44:45;13.33;;;10.30;;
13208;SDS011;6669;42.678;23.332;2024-01-15T02:47:15;14.10;;;10.10;;
13208;SDS011;6669;42.678;23.332;2024-01-15T02:49:43;11.40;;;9.97;;
13208;SDS011;6669;42.678;23.332;2024-01-15T02:52:11;13.70;;;10.67;;
13208;SDS011;6669;42.678;23.332;2024-01-15T02:54:39;12.30;;;10.03;;
13208;SDS011;6669;42.678;23.332;2024-01-15T02:57:08;19.47;;;15.03;;
13208;SDS011;6669;42.678;23.332;2024-01-15T02:59:37;31.00;;;22.17;;
13208;SDS011;6669;42.678;23.332;2024-01-15T03:02:05;30.33;;;21.77;;
13208;SDS011;6669;42.678;23.332;2024-01-15T03:04:34;26.93;;;19.90;;
13208;SDS011;6669;42.678;23.332;2024-01-15T03:07:02;30.17;;;21.73;;
13208;SDS011;6669;42.678;23.332;2024-01-15T03:09:32;27.27;;;19.97;;
13208;SDS011;6669;42.678;23.332;2024-01-15T03:12:00;26.80;;;18.27;;
13208;SDS011;6669;42.678;23.332;2024-01-15T03:14:28;27.13;;;20.33;;
13208;SDS011;6669;42.678;23.332;2024-01-15T03:16:58;29.43;;;21.17;;
13208;SDS011;6669;42.678;23.332;2024-01-15T03:19:27;30.37;;;23.00;;
13208;SDS011;6669;42.678;23.332;2024-01-15T03:21:55;35.53;;;27.30;;
13208;SDS011;6669;42.678;23.332;2024-01-15T03:24:23;40.33;;;29.27;;
13208;SDS011;6669;42.678;23.332;2024-01-15T03:26:52;44.70;;;33.77;;
13208;SDS011;6669;42.678;23.332;2024-01-15T03:29:20;47.83;;;33.63;;
13208;SDS011;6669;42.678;23.332;2024-01-15T03:31:48;41.90;;;30.13;;
13208;SDS011;6669;42.678;23.332;2024-01-15T03:34:18;47.77;;;32.10;;
13208;SDS011;6669;42.678;23.332;2024-01-15T03:36:47;42.87;;;30.80;;
13208;SDS011;6669;42.678;23.332;2024-01-15T03:39:15;38.10;;;27.97;;
13208;SDS011;6669;42.678;23.332;2024-01-15T03:41:43;41.97;;;28.20;;
13208;SDS011;6669;42.678;23.332;2024-01-15T03:44:11;36.00;;;26.07;;
13208;SDS011;6669;42.678;23.332;2024-01-15T03:46:39;40.50;;;27.67;;
13208;SDS011;6669;42.678;23.332;2024-01-15T03:49:07;40.53;;;29.27;;
13208;SDS011;6669;42.678;23.332;2024-01-15T03:51:37;44.67;;;29.87;;
13208;SDS011;6669;42.678;23.332;2024-01-15T03:54:06;37.07;;;27.70;;
13208;SDS011;6669;42.678;23.332;2024-01-15T03:56:34;38.37;;;27.27;;
13208;SDS011;6669;42.678;23.332;2024-01-15T03:59:02;35.00;;;25.27;;
13208;SDS011;6669;42.678;23.332;2024-01-15T04:01:30;31.90;;;22.77;;
13208;SDS011;6669;42.678;23.332;2024-01-15T04:03:58;33.87;;;23.63;;
13208;SDS011;6669;42.678;23.332;2024-01-15T04:06:27;30.90;;;21.27;;
13208;SDS011;6669;42.678;23.332;2024-01-15T04:08:58;33.77;;;22.93;;
13208;SDS011;6669;42.678;23.332;2024-01-15T04:11:27;32.00;;;22.17;;
13208;SDS011;6669;42.678;23.332;2024-01-15T04:13:55;31.87;;;21.13;;
13208;SDS011;6669;42.678;23.332;2024-01-15T04:16:23;28.27;;;21.27;;
13208;SDS011;6669;42.678;23.332;2024-01-15T04:18:52;29.97;;;21.63;;
13208;SDS011;6669;42.678;23.332;2024-01-15T04:21:20;31.50;;;21.47;;
13208;SDS011;6669;42.678;23.332;2024-01-15T04:23:48;29.30;;;22.00;;
13208;SDS011;6669;42.678;23.332;2024-01-15T04:26:18;30.53;;;21.67;;
13208;SDS011;6669;42.678;23.332;2024-01-15T04:28:46;30.57;;;21.87;;
13208;SDS011;6669;42.678;23.332;2024-01-15T04:31:20;28.47;;;21.07;;
13208;SDS011;6669;42.678;23.332;2024-01-15T04:33:49;31.47;;;22.30;;
13208;SDS011;6669;42.678;23.332;2024-01-15T04:36:18;32.23;;;22.90;;
13208;SDS011;6669;42.678;23.332;2024-01-15T04:38:46;31.07;;;22.57;;
13208;SDS011;6669;42.678;23.332;2024-01-15T04:41:15;31.07;;;21.67;;
13208;SDS011;6669;42.678;23.332;2024-01-15T04:43:45;28.37;;;22.80;;
13208;SDS011;6669;42.678;23.332;2024-01-15T04:46:14;31.13;;;22.40;;
13208;SDS011;6669;42.678;23.332;2024-01-15T04:48:42;32.80;;;22.47;;
13208;SDS011;6669;42.678;23.332;2024-01-15T04:51:10;29.77;;;22.03;;
13208;SDS011;6669;42.678;23.332;2024-01-15T04:53:39;28.10;;;21.30;;
13208;SDS011;6669;42.678;23.332;2024-01-15T04:56:07;28.10;;;20.13;;
13208;SDS011;6669;42.678;23.332;2024-01-15T04:58:36;27.90;;;20.60;;
13208;SDS011;6669;42.678;23.332;2024-01-15T05:01:05;24.83;;;19.43;;
13208;SDS011;6669;42.678;23.332;2024-01-15T05:03:33;27.43;;;19.17;;
13208;SDS011;6669;42.678;23.332;2024-01-15T05:06:01;28.23;;;19.87;;
13208;SDS011;6669;42.678;23.332;2024-01-15T05:08:30;23.20;;;18.23;;
13208;SDS011;6669;42.678;23.332;2024-01-15T05:10:58;23.07;;;17.67;;
13208;SDS011;6669;42.678;23.332;2024-01-15T05:13:26;24.17;;;18.47;;
13208;SDS011;6669;42.678;23.332;2024-01-15T05:15:56;24.87;;;16.83;;
13208;SDS011;6669;42.678;23.332;2024-01-15T05:18:24;23.57;;;17.40;;
13208;SDS011;6669;42.678;23.332;2024-01-15T05:20:53;23.30;;;17.90;;
13208;SDS011;6669;42.678;23.332;2024-01-15T05:23:21;25.23;;;18.37;;
13208;SDS011;6669;42.678;23.332;2024-01-15T05:25:49;24.27;;;17.97;;
13208;SDS011;6669;42.678;23.332;2024-01-15T05:28:17;26.03;;;19.13;;
13208;SDS011;6669;42.678;23.332;2024-01-15T05:30:45;23.77;;;18.30;;
13208;SDS011;6669;42.678;23.332;2024-01-15T05:33:15;22.20;;;17.87;;
13208;SDS011;6669;42.678;23.332;2024-01-15T05:35:44;23.80;;;17.83;;
13208;SDS011;6669;42.678;23.332;2024-01-15T05:38:12;24.70;;;17.70;;
13208;SDS011;6669;42.678;23.332;2024-01-15T05:40:41;22.83;;;16.70;;
13208;SDS011;6669;42.678;23.332;2024-01-15T05:43:09;24.07;;;17.13;;
13208;SDS011;6669;42.678;23.332;2024-01-15T05:45:38;25.90;;;18.10;;
13208;SDS011;6669;42.678;23.332;2024-01-15T05:48:06;27.20;;;17.93;;
13208;SDS011;6669;42.678;23.332;2024-01-15T05:50:36;24.00;;;17.87;;
13208;SDS011;6669;42.678;23.332;2024-01-15T05:53:04;23.73;;;18.07;;
13208;SDS011;6669;42.678;23.332;2024-01-15T05:55:32;27.63;;;19.73;;
13208;SDS011;6669;42.678;23.332;2024-01-15T05:58:03;26.77;;;19.47;;
13208;SDS011;6669;42.678;23.332;2024-01-15T06:00:31;28.40;;;19.80;;
13208;SDS011;6669;42.678;23.332;2024-01-15T06:03:02;24.60;;;18.30;;
13208;SDS011;6669;42.678;23.332;2024-01-15T06:05:31;26.83;;;20.23;;
13208;SDS011;6669;42.678;23.332;2024-01-15T06:08:00;28.63;;;20.90;;
13208;SDS011;6669;42.678;23.332;2024-01-15T06:10:28;32.77;;;23.10;;
13208;SDS011;6669;42.678;23.332;2024-01-15T06:12:56;24.70;;;20.17;;
13208;SDS011;6669;42.678;23.332;2024-01-15T06:15:25;27.03;;;20.10;;
13208;SDS011;6669;42.678;23.332;2024-01-15T06:17:53;31.20;;;20.97;;
13208;SDS011;6669;42.678;23.332;2024-01-15T06:20:21;28.13;;;20.53;;
13208;SDS011;6669;42.678;23.332;2024-01-15T06:22:49;25.73;;;19.77;;
13208;SDS011;6669;42.678;23.332;2024-01-15T06:25:19;24.97;;;18.67;;
13208;SDS011;6669;42.678;23.332;2024-01-15T06:27:47;26.83;;;20.00;;
13208;SDS011;6669;42.678;23.332;2024-01-15T06:30:15;27.37;;;20.60;;
13208;SDS011;6669;42.678;23.332;2024-01-15T06:32:44;31.57;;;22.10;;
13208;SDS011;6669;42.678;23.332;2024-01-15T06:35:12;31.13;;;23.33;;
13208;SDS011;6669;42.678;23.332;2024-01-15T06:37:41;33.60;;;25.27;;
13208;SDS011;6669;42.678;23.332;2024-01-15T06:40:09;34.30;;;24.20;;
13208;SDS011;6669;42.678;23.332;2024-01-15T06:42:39;41.73;;;30.67;;
13208;SDS011;6669;42.678;23.332;2024-01-15T06:45:07;40.17;;;26.90;;
13208;SDS011;6669;42.678;23.332;2024-01-15T06:47:36;36.07;;;26.90;;
13208;SDS011;6669;42.678;23.332;2024-01-15T06:50:05;35.37;;;26.57;;
13208;SDS011;6669;42.678;23.332;2024-01-15T06:52:33;38.43;;;26.53;;
13208;SDS011;6669;42.678;23.332;2024-01-15T06:55:02;39.97;;;29.37;;
13208;SDS011;6669;42.678;23.332;2024-01-15T06:57:30;38.50;;;28.30;;
13208;SDS011;6669;42.678;23.332;2024-01-15T07:00:00;36.60;;;27.40;;
13208;SDS011;6669;42.678;23.332;2024-01-15T07:02:31;38.43;;;28.03;;
13208;SDS011;6669;42.678;23.332;2024-01-15T07:05:01;39.07;;;28.43;;
13208;SDS011;6669;42.678;23.332;2024-01-15T07:07:31;39.53;;;28.17;;
13208;SDS011;6669;42.678;23.332;2024-01-15T07:09:59;39.20;;;29.80;;
13208;SDS011;6669;42.678;23.332;2024-01-15T07:12:28;36.37;;;27.53;;
13208;SDS011;6669;42.678;23.332;2024-01-15T07:14:56;37.87;;;28.70;;
13208;SDS011;6669;42.678;23.332;2024-01-15T07:17:26;39.67;;;28.63;;
13208;SDS011;6669;42.678;23.332;2024-01-15T07:19:54;43.33;;;31.53;;
13208;SDS011;6669;42.678;23.332;2024-01-15T07:22:22;56.47;;;39.97;;
13208;SDS011;6669;42.678;23.332;2024-01-15T07:24:50;48.10;;;33.07;;
13208;SDS011;6669;42.678;23.332;2024-01-15T07:27:19;46.73;;;33.07;;
13208;SDS011;6669;42.678;23.332;2024-01-15T07:29:47;45.73;;;31.43;;
13208;SDS011;6669;42.678;23.332;2024-01-15T07:32:16;43.53;;;31.87;;
13208;SDS011;6669;42.678;23.332;2024-01-15T07:34:45;42.17;;;31.20;;
13208;SDS011;6669;42.678;23.332;2024-01-15T07:37:14;45.43;;;30.40;;
13208;SDS011;6669;42.678;23.332;2024-01-15T07:39:42;44.33;;;29.83;;
13208;SDS011;6669;42.678;23.332;2024-01-15T07:42:12;42.37;;;29.83;;
13208;SDS011;6669;42.678;23.332;2024-01-15T07:44:40;42.30;;;30.70;;
13208;SDS011;6669;42.678;23.332;2024-01-15T07:47:08;46.47;;;32.17;;
13208;SDS011;6669;42.678;23.332;2024-01-15T07:49:37;157.50;;;66.97;;
13208;SDS011;6669;42.678;23.332;2024-01-15T07:52:07;62.87;;;36.93;;
13208;SDS011;6669;42.678;23.332;2024-01-15T07:54:35;45.50;;;31.23;;
13208;SDS011;6669;42.678;23.332;2024-01-15T07:57:03;136.87;;;58.80;;
13208;SDS011;6669;42.678;23.332;2024-01-15T07:59:32;52.33;;;31.53;;
13208;SDS011;6669;42.678;23.332;2024-01-15T08:02:00;38.43;;;26.97;;
13208;SDS011;6669;42.678;23.332;2024-01-15T08:04:29;51.63;;;31.20;;
13208;SDS011;6669;42.678;23.332;2024-01-15T08:06:57;43.10;;;27.60;;
13208;SDS011;6669;42.678;23.332;2024-01-15T08:09:27;43.90;;;27.10;;
13208;SDS011;6669;42.678;23.332;2024-01-15T08:11:56;51.43;;;29.73;;
13208;SDS011;6669;42.678;23.332;2024-01-15T08:14:24;40.00;;;26.77;;
13208;SDS011;6669;42.678;23.332;2024-01-15T08:16:53;42.60;;;25.77;;
13208;SDS011;6669;42.678;23.332;2024-01-15T08:19:21;31.13;;;21.83;;
13208;SDS011;6669;42.678;23.332;2024-01-15T08:21:49;73.67;;;36.47;;
13208;SDS011;6669;42.678;23.332;2024-01-15T08:24:17;56.13;;;30.17;;
13208;SDS011;6669;42.678;23.332;2024-01-15T08:26:47;31.63;;;20.00;;
13208;SDS011;6669;42.678;23.332;2024-01-15T08:29:16;63.57;;;31.13;;
13208;SDS011;6669;42.678;23.332;2024-01-15T08:31:45;29.77;;;23.07;;
13208;SDS011;6669;42.678;23.332;2024-01-15T08:34:13;34.17;;;22.47;;
13208;SDS011;6669;42.678;23.332;2024-01-15T08:36:42;63.17;;;32.10;;
13208;SDS011;6669;42.678;23.332;2024-01-15T08:39:10;46.10;;;27.20;;
13208;SDS011;6669;42.678;23.332;2024-01-15T08:41:39;30.07;;;21.27;;
13208;SDS011;6669;42.678;23.332;2024-01-15T08:44:08;32.67;;;23.97;;
13208;SDS011;6669;42.678;23.332;2024-01-15T08:46:36;32.13;;;22.60;;
13208;SDS011;6669;42.678;23.332;2024-01-15T08:49:05;31.50;;;22.77;;
13208;SDS011;6669;42.678;23.332;2024-01-15T08:51:34;30.83;;;21.00;;
13208;SDS011;6669;42.678;23.332;2024-01-15T08:54:02;33.77;;;23.97;;
13208;SDS011;6669;42.678;23.332;2024-01-15T08:56:30;39.10;;;23.80;;
13208;SDS011;6669;42.678;23.332;2024-01-15T08:58:58;29.77;;;22.03;;
13208;SDS011;6669;42.678;23.332;2024-01-15T09:01:28;32.17;;;23.17;;
13208;SDS011;6669;42.678;23.332;2024-01-15T09:03:57;29.70;;;22.23;;
13208;SDS011;6669;42.678;23.332;2024-01-15T09:06:25;34.03;;;22.13;;
13208;SDS011;6669;42.678;23.332;2024-01-15T09:08:54;37.20;;;22.43;;
13208;SDS011;6669;42.678;23.332;2024-01-15T09:11:22;31.47;;;22.90;;
13208;SDS011;6669;42.678;23.332;2024-01-15T09:13:51;33.13;;;23.23;;
13208;SDS011;6669;42.678;23.332;2024-01-15T09:16:19;36.93;;;23.73;;
13208;SDS011;6669;42.678;23.332;2024-01-15T09:18:51;32.47;;;22.90;;
13208;SDS011;6669;42.678;23.332;2024-01-15T09:21:20;27.93;;;20.57;;
13208;SDS011;6669;42.678;23.332;2024-01-15T09:23:48;46.73;;;31.13;;
13208;SDS011;6669;42.678;23.332;2024-01-15T09:26:16;30.40;;;21.53;;
13208;SDS011;6669;42.678;23.332;2024-01-15T09:28:45;31.00;;;22.77;;
13208;SDS011;6669;42.678;23.332;2024-01-15T09:31:13;32.17;;;21.90;;
13208;SDS011;6669;42.678;23.332;2024-01-15T09:33:46;27.83;;;20.53;;
13208;SDS011;6669;42.678;23.332;2024-01-15T09:36:16;32.37;;;22.43;;
13208;SDS011;6669;42.678;23.332;2024-01-15T09:38:44;34.13;;;24.07;;
13208;SDS011;6669;42.678;23.332;2024-01-15T09:41:16;32.73;;;24.43;;
13208;SDS011;6669;42.678;23.332;2024-01-15T09:43:44;37.37;;;27.70;;
13208;SDS011;6669;42.678;23.332;2024-01-15T09:46:16;44.07;;;30.33;;
13208;SDS011;6669;42.678;23.332;2024-01-15T09:48:44;46.90;;;31.37;;
13208;SDS011;6669;42.678;23.332;2024-01-15T09:51:13;45.53;;;33.20;;
13208;SDS011;6669;42.678;23.332;2024-01-15T09:53:47;52.07;;;33.97;;
13208;SDS011;6669;42.678;23.332;2024-01-15T09:56:18;51.30;;;35.57;;
13208;SDS011;6669;42.678;23.332;2024-01-15T09:58:46;47.63;;;33.33;;
13208;SDS011;6669;42.678;23.332;2024-01-15T10:01:15;50.40;;;35.53;;
13208;SDS011;6669;42.678;23.332;2024-01-15T10:03:45;49.93;;;34.63;;
13208;SDS011;6669;42.678;23.332;2024-01-15T10:06:14;50.13;;;33.23;;
13208;SDS011;6669;42.678;23.332;2024-01-15T10:08:50;53.83;;;34.37;;
13208;SDS011;6669;42.678;23.332;2024-01-15T10:11:19;47.77;;;33.13;;
13208;SDS011;6669;42.678;23.332;2024-01-15T10:13:48;46.23;;;34.03;;
13208;SDS011;6669;42.678;23.332;2024-01-15T10:16:23;47.67;;;32.53;;
13208;SDS011;6669;42.678;23.332;2024-01-15T10:18:51;45.37;;;31.47;;
13208;SDS011;6669;42.678;23.332;2024-01-15T10:21:20;41.33;;;31.30;;
13208;SDS011;6669;42.678;23.332;2024-01-15T10:23:49;48.53;;;32.80;;
13208;SDS011;6669;42.678;23.332;2024-01-15T10:26:18;40.40;;;29.30;;
13208;SDS011;6669;42.678;23.332;2024-01-15T10:28:46;42.50;;;30.37;;
13208;SDS011;6669;42.678;23.332;2024-01-15T10:31:18;43.33;;;28.47;;
13208;SDS011;6669;42.678;23.332;2024-01-15T10:33:51;36.03;;;26.63;;
13208;SDS011;6669;42.678;23.332;2024-01-15T10:36:20;35.00;;;25.47;;
13208;SDS011;6669;42.678;23.332;2024-01-15T10:38:50;32.63;;;24.73;;
13208;SDS011;6669;42.678;23.332;2024-01-15T10:41:18;32.80;;;23.20;;
13208;SDS011;6669;42.678;23.332;2024-01-15T10:43:46;33.37;;;22.70;;
13208;SDS011;6669;42.678;23.332;2024-01-15T10:46:15;31.73;;;22.93;;
13208;SDS011;6669;42.678;23.332;2024-01-15T10:48:43;37.67;;;23.73;;
13208;SDS011;6669;42.678;23.332;2024-01-15T10:51:12;26.80;;;21.30;;
13208;SDS011;6669;42.678;23.332;2024-01-15T10:53:42;31.80;;;23.83;;
13208;SDS011;6669;42.678;23.332;2024-01-15T10:56:13;31.47;;;23.50;;
13208;SDS011;6669;42.678;23.332;2024-01-15T10:58:41;30.43;;;23.33;;
13208;SDS011;6669;42.678;23.332;2024-01-15T11:01:10;37.47;;;23.73;;
13208;SDS011;6669;42.678;23.332;2024-01-15T11:03:40;29.80;;;22.33;;
13208;SDS011;6669;42.678;23.332;2024-01-15T11:06:15;36.80;;;23.87;;
13208;SDS011;6669;42.678;23.332;2024-01-15T11:08:46;30.97;;;23.97;;
13208;SDS011;6669;42.678;23.332;2024-01-15T11:11:18;32.27;;;23.80;;
13208;SDS011;6669;42.678;23.332;2024-01-15T11:13:48;26.73;;;19.03;;
13208;SDS011;6669;42.678;23.332;2024-01-15T11:16:18;21.20;;;16.40;;
13208;SDS011;6669;42.678;23.332;2024-01-15T11:19:01;20.83;;;15.83;;
13208;SDS011;6669;42.678;23.332;2024-01-15T11:21:32;22.93;;;16.37;;
13208;SDS011;6669;42.678;23.332;2024-01-15T11:24:09;26.37;;;15.70;;
13208;SDS011;6669;42.678;23.332;2024-01-15T11:26:44;22.17;;;15.93;;
13208;SDS011;6669;42.678;23.332;2024-01-15T11:29:28;19.50;;;15.33;;
13208;SDS011;6669;42.678;23.332;2024-01-15T11:32:01;19.07;;;12.70;;
13208;SDS011;6669;42.678;23.332;2024-01-15T11:37:25;17.10;;;11.40;;
13208;SDS011;6669;42.678;23.332;2024-01-15T11:39:54;17.97;;;12.03;;
13208;SDS011;6669;42.678;23.332;2024-01-15T11:42:25;20.60;;;13.63;;
13208;SDS011;6669;42.678;23.332;2024-01-15T11:44:54;18.20;;;12.40;;
13208;SDS011;6669;42.678;23.332;2024-01-15T11:47:30;15.10;;;12.37;;
13208;SDS011;6669;42.678;23.332;2024-01-15T11:50:20;16.57;;;11.70;;
13208;SDS011;6669;42.678;23.332;2024-01-15T11:52:51;14.53;;;11.77;;
13208;SDS011;6669;42.678;23.332;2024-01-15T11:55:33;15.30;;;11.97;;
13208;SDS011;6669;42.678;23.332;2024-01-15T11:58:05;16.53;;;11.90;;
13208;SDS011;6669;42.678;23.332;2024-01-15T12:00:39;17.37;;;12.20;;
13208;SDS011;6669;42.678;23.332;2024-01-15T12:03:11;16.87;;;11.97;;
13208;SDS011;6669;42.678;23.332;2024-01-15T12:05:39;19.77;;;12.40;;
13208;SDS011;6669;42.678;23.332;2024-01-15T12:08:25;15.37;;;11.10;;
13208;SDS011;6669;42.678;23.332;2024-01-15T12:10:53;17.50;;;11.80;;
13208;SDS011;6669;42.678;23.332;2024-01-15T12:13:26;14.90;;;11.30;;
13208;SDS011;6669;42.678;23.332;2024-01-15T12:15:57;16.50;;;11.63;;
13208;SDS011;6669;42.678;23.332;2024-01-15T12:18:32;14.97;;;11.80;;
13208;SDS011;6669;42.678;23.332;2024-01-15T12:21:00;16.70;;;11.80;;
13208;SDS011;6669;42.678;23.332;2024-01-15T12:23:29;14.77;;;11.47;;
13208;SDS011;6669;42.678;23.332;2024-01-15T12:25:57;21.03;;;12.33;;
13208;SDS011;6669;42.678;23.332;2024-01-15T12:28:33;17.90;;;11.97;;
13208;SDS011;6669;42.678;23.332;2024-01-15T12:31:16;17.43;;;12.30;;
13208;SDS011;6669;42.678;23.332;2024-01-15T12:34:01;19.63;;;11.60;;
13208;SDS011;6669;42.678;23.332;2024-01-15T12:36:40;14.53;;;11.73;;
13208;SDS011;6669;42.678;23.332;2024-01-15T12:39:11;16.37;;;12.40;;
13208;SDS011;6669;42.678;23.332;2024-01-15T12:41:39;17.80;;;12.40;;
13208;SDS011;6669;42.678;23.332;2024-01-15T12:44:09;17.97;;;13.30;;
13208;SDS011;6669;42.678;23.332;2024-01-15T12:46:38;18.13;;;12.23;;
13208;SDS011;6669;42.678;23.332;2024-01-15T12:49:07;16.70;;;11.97;;
13208;SDS011;6669;42.678;23.332;2024-01-15T12:51:35;19.80;;;12.37;;
13208;SDS011;6669;42.678;23.332;2024-01-15T12:54:05;17.63;;;13.33;;
13208;SDS011;6669;42.678;23.332;2024-01-15T12:56:33;18.77;;;12.77;;
13208;SDS011;6669;42.678;23.332;2024-01-15T12:59:01;16.43;;;13.27;;
13208;SDS011;6669;42.678;23.332;2024-01-15T13:01:31;20.37;;;14.20;;
13208;SDS011;6669;42.678;23.332;2024-01-15T13:04:00;18.50;;;13.53;;
13208;SDS011;6669;42.678;23.332;2024-01-15T13:06:28;15.60;;;12.27;;
13208;SDS011;6669;42.678;23.332;2024-01-15T13:08:57;16.47;;;12.33;;
13208;SDS011;6669;42.678;23.332;2024-01-15T13:11:25;18.63;;;12.73;;
13208;SDS011;6669;42.678;23.332;2024-01-15T13:13:54;18.67;;;12.47;;
13208;SDS011;6669;42.678;23.332;2024-01-15T13:16:23;23.47;;;17.37;;
13208;SDS011;6669;42.678;23.332;2024-01-15T13:18:55;30.10;;;22.60;;
13208;SDS011;6669;42.678;23.332;2024-01-15T13:21:23;17.87;;;12.77;;
13208;SDS011;6669;42.678;23.332;2024-01-15T13:23:52;18.57;;;12.47;;
13208;SDS011;6669;42.678;23.332;2024-01-15T13:26:20;22.23;;;13.93;;
13208;SDS011;6669;42.678;23.332;2024-01-15T13:28:48;18.17;;;13.23;;
13208;SDS011;6669;42.678;23.332;2024-01-15T13:31:16;18.93;;;12.90;;
13208;SDS011;6669;42.678;23.332;2024-01-15T13:33:45;22.60;;;15.20;;
13208;SDS011;6669;42.678;23.332;2024-01-15T13:36:15;24.23;;;14.53;;
13208;SDS011;6669;42.678;23.332;2024-01-15T13:38:43;26.03;;;14.70;;
13208;SDS011;6669;42.678;23.332;2024-01-15T13:41:11;20.90;;;14.97;;
13208;SDS011;6669;42.678;23.332;2024-01-15T13:43:40;34.20;;;18.13;;
13208;SDS011;6669;42.678;23.332;2024-01-15T13:46:08;28.87;;;17.70;;
13208;SDS011;6669;42.678;23.332;2024-01-15T13:48:37;21.50;;;13.23;;
13208;SDS011;6669;42.678;23.332;2024-01-15T13:51:06;19.57;;;14.43;;
13208;SDS011;6669;42.678;23.332;2024-01-15T13:53:35;20.13;;;14.37;;
13208;SDS011;6669;42.678;23.332;2024-01-15T13:56:05;27.57;;;15.30;;
13208;SDS011;6669;42.678;23.332;2024-01-15T13:58:34;22.43;;;14.33;;
13208;SDS011;6669;42.678;23.332;2024-01-15T14:01:03;23.93;;;14.23;;
13208;SDS011;6669;42.678;23.332;2024-01-15T14:03:32;20.90;;;13.87;;
13208;SDS011;6669;42.678;23.332;2024-01-15T14:06:01;21.90;;;16.40;;
13208;SDS011;6669;42.678;23.332;2024-01-15T14:08:36;22.07;;;15.33;;
13208;SDS011;6669;42.678;23.332;2024-01-15T14:11:05;20.17;;;15.20;;
13208;SDS011;6669;42.678;23.332;2024-01-15T14:13:33;29.10;;;19.00;;
13208;SDS011;6669;42.678;23.332;2024-01-15T14:16:02;20.03;;;15.37;;
13208;SDS011;6669;42.678;23.332;2024-01-15T14:18:30;21.47;;;13.93;;
13208;SDS011;6669;42.678;23.332;2024-01-15T14:21:00;22.70;;;16.30;;
13208;SDS011;6669;42.678;23.332;2024-01-15T14:23:30;24.87;;;15.90;;
13208;SDS011;6669;42.678;23.332;2024-01-15T14:25:59;22.47;;;14.93;;
13208;SDS011;6669;42.678;23.332;2024-01-15T14:28:28;20.30;;;14.57;;
13208;SDS011;6669;42.678;23.332;2024-01-15T14:30:56;22.13;;;14.80;;
13208;SDS011;6669;42.678;23.332;2024-01-15T14:33:26;24.07;;;16.50;;
13208;SDS011;6669;42.678;23.332;2024-01-15T14:35:55;26.80;;;16.83;;